Time;durP1;ratioP1;P1;durP2;ratioP2;P2;SDS_P1;SDS_P2;PMS_P1;PMS_P2;Temp;Humidity;BMP_temperature;BMP_pressure;BME280_temperature;BME280_humidity;BME280_pressure;Samples;Min_cycle;Max_cycle;Signal;HPM_P1;HPM_P2
2020/12/19 00:00:46;;;;;;;16.98;8.88;;;7.10;99.90;;;;;;4989044;28;20025;-76
2020/12/19 00:03:11;;;;;;;12.98;8.65;;;7.10;99.90;;;;;;4992189;28;20045;-76
2020/12/19 00:05:37;;;;;;;15.45;8.30;;;7.10;99.90;;;;;;4993310;28;20133;-76
2020/12/19 00:08:03;;;;;;;14.13;7.85;;;7.10;99.90;;;;;;4990510;28;20512;-76
2020/12/19 00:10:29;;;;;;;19.27;9.10;;;7.20;99.90;;;;;;4981714;28;20030;-77
2020/12/19 00:12:59;;;;;;;14.05;8.75;;;7.10;99.90;;;;;;4983207;28;20475;-76
2020/12/19 00:15:25;;;;;;;13.25;9.48;;;7.10;99.90;;;;;;4979127;28;20038;-77
2020/12/19 00:17:51;;;;;;;13.25;8.85;;;7.00;99.90;;;;;;4985149;28;20077;-76
2020/12/19 00:20:17;;;;;;;13.35;8.68;;;7.00;99.90;;;;;;4986495;28;20924;-77
2020/12/19 00:22:46;;;;;;;13.90;8.27;;;7.10;99.90;;;;;;4993352;28;20031;-76
2020/12/19 00:25:12;;;;;;;13.93;8.85;;;7.10;99.90;;;;;;4982913;28;20034;-77
2020/12/19 00:27:38;;;;;;;14.90;8.38;;;7.10;99.90;;;;;;4987927;28;20484;-76
2020/12/19 00:30:04;;;;;;;13.45;8.95;;;7.10;99.90;;;;;;4986113;28;20034;-75
2020/12/19 00:32:30;;;;;;;15.00;7.88;;;7.10;99.90;;;;;;4985388;28;20121;-75
2020/12/19 00:34:56;;;;;;;17.90;8.55;;;7.10;99.90;;;;;;4991797;28;20045;-76
2020/12/19 00:37:22;;;;;;;16.02;8.20;;;7.10;99.90;;;;;;4979643;28;20463;-75
2020/12/19 00:39:48;;;;;;;14.32;8.05;;;7.10;99.90;;;;;;4980958;28;20050;-77
2020/12/19 00:42:14;;;;;;;14.88;9.15;;;7.10;99.90;;;;;;4993154;28;20053;-75
2020/12/19 00:44:39;;;;;;;13.30;7.85;;;7.10;99.90;;;;;;4993207;28;20042;-75
2020/12/19 00:47:05;;;;;;;17.23;9.02;;;7.10;99.90;;;;;;4991776;28;20052;-76
2020/12/19 00:49:30;;;;;;;14.07;8.32;;;7.10;99.90;;;;;;4992140;28;20026;-76
2020/12/19 00:51:56;;;;;;;13.60;8.10;;;7.10;99.90;;;;;;4987333;28;20026;-76
2020/12/19 00:54:21;;;;;;;12.65;8.10;;;7.10;99.90;;;;;;4986071;28;20032;-76
2020/12/19 00:56:47;;;;;;;18.55;8.25;;;7.10;99.90;;;;;;4986044;28;20015;-77
2020/12/19 00:59:13;;;;;;;16.98;9.20;;;7.10;99.90;;;;;;4977430;28;20113;-75
2020/12/19 01:01:38;;;;;;;17.75;8.48;;;7.10;99.90;;;;;;4978642;28;20062;-76
2020/12/19 01:04:04;;;;;;;14.43;8.63;;;7.20;99.90;;;;;;4996448;28;20033;-75
2020/12/19 01:06:30;;;;;;;14.77;8.27;;;7.10;99.90;;;;;;4983942;28;20022;-76
2020/12/19 01:08:57;;;;;;;12.88;8.40;;;7.10;99.90;;;;;;4996255;28;20027;-75
2020/12/19 01:11:26;;;;;;;13.63;8.00;;;7.10;99.90;;;;;;4991554;28;20133;-76
2020/12/19 01:13:53;;;;;;;23.15;9.02;;;7.00;99.90;;;;;;5004308;28;20045;-76
2020/12/19 01:16:21;;;;;;;16.95;9.02;;;7.00;99.90;;;;;;5009003;28;20034;-75
2020/12/19 01:18:47;;;;;;;;;;;7.00;99.90;;;;;;5012684;28;20081;-76
2020/12/19 01:21:21;;;;;;;13.90;8.10;;;6.90;99.90;;;;;;5010313;28;19910;-76
2020/12/19 01:23:48;;;;;;;14.00;8.45;;;6.90;99.90;;;;;;5006765;28;20017;-77
2020/12/19 01:26:14;;;;;;;15.75;8.18;;;6.90;99.90;;;;;;5004699;28;20082;-76
2020/12/19 01:28:40;;;;;;;16.20;8.15;;;6.90;99.90;;;;;;4999033;28;20498;-78
2020/12/19 01:31:11;;;;;;;14.40;8.38;;;6.90;99.90;;;;;;4992054;28;20038;-76
2020/12/19 01:33:37;;;;;;;13.57;7.38;;;6.90;99.90;;;;;;4997857;28;20082;-76
2020/12/19 01:36:07;;;;;;;15.95;8.30;;;6.90;99.90;;;;;;4991590;28;20459;-75
2020/12/19 01:38:33;;;;;;;15.75;8.30;;;6.90;99.90;;;;;;4977263;28;20534;-76
2020/12/19 01:40:58;;;;;;;16.92;8.55;;;6.90;99.90;;;;;;4980947;28;20027;-76
2020/12/19 01:43:24;;;;;;;14.02;8.57;;;6.90;99.90;;;;;;4991968;28;20117;-75
2020/12/19 01:45:51;;;;;;;16.77;8.45;;;6.90;99.90;;;;;;4978270;28;20031;-76
2020/12/19 01:48:24;;;;;;;17.55;8.73;;;6.90;99.90;;;;;;4988512;28;20026;-75
2020/12/19 01:50:52;;;;;;;13.25;7.70;;;6.90;99.90;;;;;;4986170;28;20058;-75
2020/12/19 01:53:20;;;;;;;;;;;6.90;99.90;;;;;;4982729;28;20019;-76
2020/12/19 01:55:51;;;;;;;12.85;7.45;;;6.90;99.90;;;;;;4984598;28;19910;-75
2020/12/19 01:58:17;;;;;;;13.52;7.80;;;6.90;99.90;;;;;;4991656;28;20134;-75
2020/12/19 02:00:42;;;;;;;14.20;8.77;;;6.90;99.90;;;;;;4978821;28;20089;-76
2020/12/19 02:03:09;;;;;;;16.95;8.32;;;6.90;99.90;;;;;;4981757;28;20026;-76
2020/12/19 02:05:40;;;;;;;17.73;9.15;;;6.80;99.90;;;;;;4992228;28;20029;-76
2020/12/19 02:08:07;;;;;;;17.50;8.65;;;6.80;99.90;;;;;;4992303;28;20038;-76
2020/12/19 02:10:34;;;;;;;11.75;8.13;;;6.90;99.90;;;;;;4995549;28;20399;-75
2020/12/19 02:13:04;;;;;;;20.63;9.13;;;6.90;99.90;;;;;;4995950;28;20038;-76
2020/12/19 02:15:44;;;;;;;16.10;8.02;;;6.90;99.90;;;;;;4985783;28;20043;-76
2020/12/19 02:18:10;;;;;;;15.93;8.70;;;6.80;99.90;;;;;;4978092;28;20503;-76
2020/12/19 02:20:38;;;;;;;16.58;9.48;;;6.80;99.90;;;;;;4991166;28;20475;-76
2020/12/19 02:23:06;;;;;;;19.77;8.57;;;6.80;99.90;;;;;;4995943;28;20037;-76
2020/12/19 02:25:36;;;;;;;18.80;9.30;;;6.80;99.90;;;;;;4977366;28;20125;-77
2020/12/19 02:28:05;;;;;;;14.50;9.07;;;6.80;99.90;;;;;;4983292;28;20520;-76
2020/12/19 02:30:31;;;;;;;13.43;8.35;;;6.80;99.90;;;;;;4982850;28;20039;-76
2020/12/19 02:32:57;;;;;;;17.70;9.25;;;6.90;99.90;;;;;;4985323;28;20126;-76
2020/12/19 02:35:23;;;;;;;15.88;8.75;;;6.90;99.90;;;;;;4981678;28;20110;-76
2020/12/19 02:37:49;;;;;;;16.80;8.80;;;6.90;99.90;;;;;;4982093;28;20097;-76
2020/12/19 02:40:15;;;;;;;13.15;7.80;;;6.80;99.90;;;;;;4992725;28;20558;-76
2020/12/19 02:42:43;;;;;;;14.00;8.57;;;6.80;99.90;;;;;;4990902;28;20053;-76
2020/12/19 02:45:10;;;;;;;16.52;9.85;;;6.70;99.90;;;;;;4976465;28;20127;-76
2020/12/19 02:47:36;;;;;;;17.27;9.25;;;6.70;99.90;;;;;;4986898;28;20526;-76
2020/12/19 02:50:02;;;;;;;16.73;8.55;;;6.70;99.90;;;;;;4993893;28;20030;-76
2020/12/19 02:52:28;;;;;;;20.00;9.20;;;6.60;99.90;;;;;;4989201;28;20027;-76
2020/12/19 02:54:53;;;;;;;14.73;8.80;;;6.70;99.90;;;;;;4995749;28;20026;-75
2020/12/19 02:57:19;;;;;;;13.45;7.97;;;6.70;99.90;;;;;;4980686;28;20027;-76
2020/12/19 02:59:44;;;;;;;14.57;8.60;;;6.70;99.90;;;;;;4986319;28;20029;-77
2020/12/19 03:02:10;;;;;;;15.85;8.77;;;6.70;99.90;;;;;;4987523;28;20594;-76
2020/12/19 03:04:35;;;;;;;15.90;8.80;;;6.70;99.90;;;;;;4978341;28;20035;-76
2020/12/19 03:07:01;;;;;;;16.55;9.07;;;6.60;99.90;;;;;;4978345;28;20399;-76
2020/12/19 03:09:26;;;;;;;15.52;8.90;;;6.60;99.90;;;;;;4988056;28;20043;-75
2020/12/19 03:11:52;;;;;;;20.45;9.82;;;6.50;99.90;;;;;;5003503;28;20026;-77
2020/12/19 03:14:19;;;;;;;15.38;8.55;;;6.50;99.90;;;;;;4998937;28;20077;-76
2020/12/19 03:16:45;;;;;;;21.85;8.68;;;6.50;99.90;;;;;;4998687;28;20007;-76
2020/12/19 03:19:10;;;;;;;21.10;9.38;;;6.50;99.90;;;;;;5009279;28;20053;-76
2020/12/19 03:21:36;;;;;;;17.45;9.65;;;6.50;99.90;;;;;;5015631;28;20061;-78
2020/12/19 03:24:02;;;;;;;22.15;9.77;;;6.40;99.90;;;;;;5014117;28;20042;-77
2020/12/19 03:26:27;;;;;;;18.88;9.77;;;6.40;99.90;;;;;;5003817;28;20042;-75
2020/12/19 03:28:53;;;;;;;20.67;9.93;;;6.40;99.90;;;;;;4994228;28;20085;-76
2020/12/19 03:31:19;;;;;;;20.02;10.25;;;6.40;99.90;;;;;;4997604;28;20105;-76
2020/12/19 03:33:44;;;;;;;18.75;8.90;;;6.40;99.90;;;;;;4981946;28;20023;-76
2020/12/19 03:36:10;;;;;;;17.20;9.05;;;6.40;99.90;;;;;;4988399;28;20371;-76
2020/12/19 03:38:35;;;;;;;19.77;8.90;;;6.50;99.90;;;;;;4984920;28;20031;-75
2020/12/19 03:41:01;;;;;;;18.77;9.75;;;6.50;99.90;;;;;;4976071;28;20097;-76
2020/12/19 03:43:27;;;;;;;18.67;8.63;;;6.50;99.90;;;;;;4995678;28;20030;-76
2020/12/19 03:45:52;;;;;;;17.83;9.35;;;6.50;99.90;;;;;;4993609;28;20031;-76
2020/12/19 03:48:18;;;;;;;17.20;8.50;;;6.50;99.90;;;;;;4994736;28;20034;-76
2020/12/19 03:50:43;;;;;;;16.95;8.88;;;6.50;99.90;;;;;;4990438;28;20018;-76
2020/12/19 03:53:09;;;;;;;16.67;9.07;;;6.50;99.90;;;;;;4985074;28;20356;-76
2020/12/19 03:55:35;;;;;;;18.20;9.43;;;6.50;99.90;;;;;;4984324;28;20062;-76
2020/12/19 03:58:00;;;;;;;17.33;10.02;;;6.50;99.90;;;;;;4993057;28;20126;-76
2020/12/19 04:00:26;;;;;;;20.80;9.43;;;6.60;99.90;;;;;;4988486;28;20137;-76
2020/12/19 04:02:51;;;;;;;23.75;9.98;;;6.50;99.90;;;;;;4994007;28;20038;-76
2020/12/19 04:05:17;;;;;;;19.08;9.95;;;6.50;99.90;;;;;;4993765;28;20030;-76
2020/12/19 04:07:43;;;;;;;13.80;8.95;;;6.50;99.90;;;;;;4994750;28;20031;-76
2020/12/19 04:10:09;;;;;;;20.67;10.05;;;6.60;99.90;;;;;;4990787;28;20134;-76
2020/12/19 04:12:35;;;;;;;17.05;9.43;;;6.50;99.90;;;;;;4985974;28;20069;-76
2020/12/19 04:15:02;;;;;;;16.90;9.18;;;6.60;99.90;;;;;;4989510;28;20042;-76
2020/12/19 04:17:28;;;;;;;18.52;8.63;;;6.60;99.90;;;;;;4986113;28;20030;-75
2020/12/19 04:19:54;;;;;;;16.17;9.07;;;6.60;99.90;;;;;;4986095;28;20039;-76
2020/12/19 04:22:19;;;;;;;18.23;9.13;;;6.60;99.90;;;;;;4983492;28;20036;-76
2020/12/19 04:24:45;;;;;;;16.35;8.18;;;6.60;99.90;;;;;;4992834;28;20027;-76
2020/12/19 04:27:11;;;;;;;17.20;8.98;;;6.60;99.90;;;;;;4986838;28;20030;-76
2020/12/19 04:29:36;;;;;;;17.95;8.80;;;6.60;99.90;;;;;;4993321;28;20110;-76
2020/12/19 04:32:02;;;;;;;17.75;8.80;;;6.70;99.90;;;;;;4986411;28;20036;-76
2020/12/19 04:34:27;;;;;;;19.38;9.32;;;6.70;99.90;;;;;;4994335;28;20033;-76
2020/12/19 04:36:54;;;;;;;18.00;8.95;;;6.70;99.90;;;;;;4984943;28;20026;-76
2020/12/19 04:39:20;;;;;;;17.33;9.38;;;6.60;99.90;;;;;;4981576;28;20038;-76
2020/12/19 04:41:46;;;;;;;15.82;8.98;;;6.60;99.90;;;;;;5000520;28;20375;-76
2020/12/19 04:44:12;;;;;;;19.33;9.80;;;6.60;99.90;;;;;;4984836;28;20483;-76
2020/12/19 04:46:40;;;;;;;18.10;9.82;;;6.60;99.90;;;;;;4983694;28;20113;-76
2020/12/19 04:49:06;;;;;;;;;;;6.60;99.90;;;;;;4992714;28;20027;-76
2020/12/19 04:51:34;;;;;;;21.17;9.02;;;6.60;99.90;;;;;;4976499;28;19906;-76
2020/12/19 04:54:00;;;;;;;22.42;10.35;;;6.60;99.90;;;;;;4977875;28;20029;-75
2020/12/19 04:56:28;;;;;;;17.35;9.98;;;6.60;99.90;;;;;;4975161;28;20022;-75
2020/12/19 04:58:55;;;;;;;21.92;10.63;;;6.60;99.90;;;;;;4975083;28;20534;-74
2020/12/19 05:01:21;;;;;;;19.73;10.25;;;6.60;99.90;;;;;;4986215;28;20488;-75
2020/12/19 05:03:51;;;;;;;16.98;9.10;;;6.60;99.90;;;;;;4987790;28;20038;-75
2020/12/19 05:06:25;;;;;;;22.10;10.23;;;6.60;99.90;;;;;;4998352;28;20030;-76
2020/12/19 05:08:51;;;;;;;19.25;9.50;;;6.60;99.90;;;;;;5006638;28;20014;-76
2020/12/19 05:11:18;;;;;;;18.77;9.20;;;6.60;99.90;;;;;;5015801;28;20050;-76
2020/12/19 05:13:45;;;;;;;25.10;9.77;;;6.60;99.90;;;;;;5008848;28;20086;-75
2020/12/19 05:16:13;;;;;;;16.02;9.05;;;6.60;99.90;;;;;;5007158;28;20046;-77
2020/12/19 05:18:39;;;;;;;19.38;8.82;;;6.60;99.90;;;;;;5000026;28;20022;-78
2020/12/19 05:21:06;;;;;;;23.23;9.45;;;6.60;99.90;;;;;;4999561;28;20041;-76
2020/12/19 05:23:37;;;;;;;16.98;9.23;;;6.70;99.90;;;;;;4998147;28;20485;-77
2020/12/19 05:26:12;;;;;;;14.75;8.77;;;6.70;99.90;;;;;;5000257;28;20508;-76
2020/12/19 05:28:41;;;;;;;18.98;9.18;;;6.70;99.90;;;;;;5002570;28;20034;-78
2020/12/19 05:31:08;;;;;;;15.88;8.98;;;6.70;99.90;;;;;;4999202;28;20386;-77
2020/12/19 05:33:42;;;;;;;25.42;9.88;;;6.70;99.90;;;;;;4997835;28;20030;-75
2020/12/19 05:36:18;;;;;;;17.08;9.40;;;6.70;99.90;;;;;;4995727;28;20034;-75
2020/12/19 05:38:43;;;;;;;22.38;9.93;;;6.70;99.90;;;;;;5005224;28;20482;-77
2020/12/19 05:41:11;;;;;;;17.23;8.88;;;6.70;99.90;;;;;;5000883;28;20033;-75
2020/12/19 05:43:49;;;;;;;17.85;8.38;;;6.70;99.90;;;;;;5004171;28;20033;-75
2020/12/19 05:46:36;;;;;;;16.88;9.50;;;6.70;99.90;;;;;;4992406;28;20033;-76
2020/12/19 05:49:03;;;;;;;18.67;9.68;;;6.70;99.90;;;;;;5001540;28;20106;-75
2020/12/19 05:51:31;;;;;;;20.83;9.73;;;6.70;99.90;;;;;;4995136;28;20382;-76
2020/12/19 05:54:06;;;;;;;17.42;9.63;;;6.70;99.90;;;;;;4987717;28;20364;-76
2020/12/19 05:56:43;;;;;;;18.70;9.23;;;6.70;99.90;;;;;;4987958;28;20023;-76
2020/12/19 05:59:14;;;;;;;25.63;11.13;;;6.70;99.90;;;;;;4992767;28;20027;-76
2020/12/19 06:01:44;;;;;;;23.88;10.02;;;6.70;99.90;;;;;;4998590;28;20138;-76
2020/12/19 06:04:11;;;;;;;20.80;9.70;;;6.60;99.90;;;;;;4992111;28;20034;-76
2020/12/19 06:06:41;;;;;;;23.00;11.02;;;6.60;99.90;;;;;;4995991;28;20129;-76
2020/12/19 06:09:13;;;;;;;17.85;10.15;;;6.60;99.90;;;;;;4999630;28;20038;-77
2020/12/19 06:11:50;;;;;;;18.90;9.60;;;6.60;99.90;;;;;;4992004;28;20030;-76
2020/12/19 06:14:24;;;;;;;17.85;10.52;;;6.60;99.90;;;;;;4992986;28;20538;-77
2020/12/19 06:16:53;;;;;;;17.83;9.57;;;6.60;99.90;;;;;;4991614;28;20077;-76
2020/12/19 06:19:24;;;;;;;23.60;10.27;;;6.60;99.90;;;;;;4988843;28;20042;-76
2020/12/19 06:21:52;;;;;;;20.00;10.20;;;6.60;99.90;;;;;;4995008;28;20046;-76
2020/12/19 06:24:36;;;;;;;;;;;6.50;99.90;;;;;;4999050;28;20081;-75
2020/12/19 06:27:02;;;;;;;18.50;9.60;;;6.60;99.90;;;;;;4995381;28;19964;-76
2020/12/19 06:29:36;;;;;;;18.85;9.90;;;6.50;99.90;;;;;;4995636;28;20034;-76
2020/12/19 06:32:02;;;;;;;17.77;10.55;;;6.50;99.90;;;;;;4992272;28;20126;-76
2020/12/19 06:34:28;;;;;;;20.15;11.10;;;6.50;99.90;;;;;;4998309;28;20030;-76
2020/12/19 06:36:55;;;;;;;23.63;9.70;;;6.50;99.90;;;;;;4995110;28;20459;-76
2020/12/19 06:39:21;;;;;;;18.83;9.48;;;6.60;99.90;;;;;;4992722;28;20117;-76
2020/12/19 06:41:49;;;;;;;18.15;9.98;;;6.60;99.90;;;;;;4990905;28;20110;-75
2020/12/19 06:44:16;;;;;;;21.08;11.95;;;6.60;99.90;;;;;;4993549;28;20028;-76
2020/12/19 06:46:42;;;;;;;18.77;9.48;;;6.70;99.90;;;;;;4997794;28;20022;-76
2020/12/19 06:49:26;;;;;;;16.63;9.95;;;6.70;99.90;;;;;;4987563;28;20114;-76
2020/12/19 06:52:02;;;;;;;18.50;9.35;;;6.70;99.90;;;;;;4981182;28;20097;-76
2020/12/19 06:54:41;;;;;;;16.63;9.15;;;6.60;99.90;;;;;;4992376;28;20038;-77
2020/12/19 06:57:25;;;;;;;19.77;9.80;;;6.70;99.90;;;;;;5009250;28;20026;-75
2020/12/19 06:59:51;;;;;;;19.48;9.95;;;6.80;99.90;;;;;;5007493;28;20026;-77
2020/12/19 07:02:22;;;;;;;20.52;9.90;;;6.90;99.90;;;;;;5003067;28;20030;-75
2020/12/19 07:04:49;;;;;;;17.95;9.13;;;6.90;99.90;;;;;;5005249;28;20072;-75
2020/12/19 07:07:26;;;;;;;19.42;9.55;;;6.90;99.90;;;;;;5000462;28;20120;-74
2020/12/19 07:10:00;;;;;;;16.52;9.45;;;7.00;99.90;;;;;;4997031;28;20134;-75
2020/12/19 07:12:35;;;;;;;18.27;9.85;;;7.00;99.90;;;;;;5008084;28;20058;-74
2020/12/19 07:15:02;;;;;;;16.27;9.18;;;7.00;99.90;;;;;;4990968;28;20068;-75
2020/12/19 07:17:27;;;;;;;20.15;10.70;;;7.10;99.90;;;;;;4992730;28;20087;-75
2020/12/19 07:19:58;;;;;;;14.50;8.43;;;7.10;99.90;;;;;;5008310;28;20514;-78
2020/12/19 07:22:25;;;;;;;17.20;8.77;;;7.20;99.90;;;;;;4997474;28;20446;-75
2020/12/19 07:24:54;;;;;;;17.40;8.65;;;7.20;99.90;;;;;;4992304;28;20126;-76
2020/12/19 07:27:23;;;;;;;17.50;10.13;;;7.20;99.90;;;;;;5000293;28;20022;-74
2020/12/19 07:29:57;;;;;;;18.42;9.52;;;7.20;99.90;;;;;;4989241;28;20030;-74
2020/12/19 07:32:24;;;;;;;16.08;9.35;;;7.20;99.90;;;;;;4990407;28;20310;-76
2020/12/19 07:34:53;;;;;;;16.23;9.15;;;7.20;99.90;;;;;;4977138;28;20114;-76
2020/12/19 07:37:20;;;;;;;18.25;10.25;;;7.20;99.90;;;;;;4992252;28;20023;-76
2020/12/19 07:39:47;;;;;;;15.73;8.87;;;7.20;99.90;;;;;;4994770;28;20026;-76
2020/12/19 07:42:12;;;;;;;19.08;8.52;;;7.20;99.90;;;;;;4989843;28;20093;-75
2020/12/19 07:44:38;;;;;;;19.40;10.25;;;7.20;99.90;;;;;;4976929;28;20062;-76
2020/12/19 07:47:13;;;;;;;18.02;8.73;;;7.20;99.90;;;;;;4990980;28;20038;-76
2020/12/19 07:49:44;;;;;;;17.13;9.38;;;7.20;99.90;;;;;;4987405;28;20026;-76
2020/12/19 07:52:15;;;;;;;17.15;9.05;;;7.20;99.90;;;;;;4985540;28;20109;-76
2020/12/19 07:54:50;;;;;;;17.30;8.75;;;7.20;99.90;;;;;;4980967;28;20427;-76
2020/12/19 07:57:16;;;;;;;18.33;9.30;;;7.20;99.90;;;;;;4983375;28;20402;-75
2020/12/19 07:59:42;;;;;;;18.88;9.85;;;7.10;99.90;;;;;;4981607;28;20031;-75
2020/12/19 08:02:10;;;;;;;22.08;10.60;;;7.10;99.90;;;;;;4979568;28;20041;-76
2020/12/19 08:04:36;;;;;;;16.30;8.98;;;7.20;99.90;;;;;;4977783;28;20027;-76
2020/12/19 08:07:02;;;;;;;22.75;9.50;;;7.20;99.90;;;;;;4981525;28;20041;-76
2020/12/19 08:09:28;;;;;;;16.08;8.75;;;7.20;99.90;;;;;;4981761;28;20077;-77
2020/12/19 08:11:59;;;;;;;19.42;9.20;;;7.20;99.90;;;;;;4989320;28;20140;-76
2020/12/19 08:14:25;;;;;;;18.17;9.15;;;7.30;99.90;;;;;;4988087;28;20022;-77
2020/12/19 08:16:52;;;;;;;17.67;9.02;;;7.30;99.90;;;;;;4979383;28;20157;-76
2020/12/19 08:19:24;;;;;;;14.85;8.70;;;7.30;99.90;;;;;;4993509;28;20026;-76
2020/12/19 08:21:58;;;;;;;18.13;9.07;;;7.40;99.90;;;;;;4974247;28;20035;-75
2020/12/19 08:24:25;;;;;;;17.65;9.23;;;7.40;99.90;;;;;;4977788;28;20039;-75
2020/12/19 08:26:50;;;;;;;17.38;9.35;;;7.50;99.90;;;;;;4982273;28;20078;-75
2020/12/19 08:29:16;;;;;;;13.70;9.00;;;7.50;99.90;;;;;;4985816;28;20030;-75
2020/12/19 08:31:42;;;;;;;16.52;9.50;;;7.60;99.90;;;;;;4993030;28;20118;-76
2020/12/19 08:34:11;;;;;;;18.50;9.02;;;7.60;99.90;;;;;;4993708;28;20031;-76
2020/12/19 08:36:45;;;;;;;20.52;8.57;;;7.70;99.90;;;;;;4989844;28;20054;-75
2020/12/19 08:39:20;;;;;;;16.38;9.50;;;7.80;99.90;;;;;;4982142;28;20026;-76
2020/12/19 08:41:46;;;;;;;14.80;8.20;;;7.90;99.90;;;;;;4993063;28;20038;-76
2020/12/19 08:44:26;;;;;;;18.13;8.20;;;7.90;99.90;;;;;;4991002;28;20390;-76
2020/12/19 08:47:03;;;;;;;16.27;8.30;;;8.00;99.90;;;;;;4984130;28;20033;-76
2020/12/19 08:49:29;;;;;;;17.20;7.80;;;8.10;99.90;;;;;;5005535;28;20050;-76
2020/12/19 08:51:55;;;;;;;21.10;8.65;;;8.20;99.90;;;;;;5009897;28;20036;-78
2020/12/19 08:54:22;;;;;;;21.75;9.20;;;8.30;99.90;;;;;;5005251;28;20027;-76
2020/12/19 08:56:51;;;;;;;16.75;8.43;;;8.40;99.90;;;;;;5002045;28;19999;-75
2020/12/19 08:59:27;;;;;;;18.80;9.70;;;8.60;99.90;;;;;;5005122;28;20030;-77
2020/12/19 09:01:56;;;;;;;16.05;7.65;;;8.70;99.90;;;;;;5015293;28;20066;-77
2020/12/19 09:04:23;;;;;;;17.35;8.57;;;8.80;99.90;;;;;;5013502;28;20045;-78
2020/12/19 09:06:50;;;;;;;15.90;8.05;;;8.80;99.90;;;;;;5013612;28;20045;-76
2020/12/19 09:09:36;;;;;;;15.82;7.88;;;8.90;99.90;;;;;;4996502;28;20034;-76
2020/12/19 09:12:14;;;;;;;13.02;7.90;;;9.00;99.90;;;;;;4996187;28;20475;-76
2020/12/19 09:14:40;;;;;;;11.82;7.72;;;9.10;99.90;;;;;;4991720;28;20043;-76
2020/12/19 09:17:06;;;;;;;18.30;7.32;;;9.30;99.90;;;;;;4991047;28;20030;-77
2020/12/19 09:19:33;;;;;;;14.52;7.35;;;9.30;99.90;;;;;;4994995;28;20037;-76
2020/12/19 09:22:00;;;;;;;11.45;8.15;;;9.30;99.90;;;;;;4986974;28;20061;-76
2020/12/19 09:24:27;;;;;;;14.25;7.60;;;9.40;99.90;;;;;;4989602;28;20023;-78
2020/12/19 09:26:53;;;;;;;15.48;8.02;;;9.50;99.90;;;;;;4986222;28;20031;-77
2020/12/19 09:29:19;;;;;;;18.60;7.15;;;9.50;99.90;;;;;;4993828;28;20517;-77
2020/12/19 09:31:45;;;;;;;14.55;7.57;;;9.50;99.90;;;;;;4991827;28;21620;-77
2020/12/19 09:34:11;;;;;;;12.05;7.57;;;9.50;99.90;;;;;;4987848;28;20027;-77
2020/12/19 09:36:37;;;;;;;13.65;7.43;;;9.50;99.90;;;;;;4985786;28;20479;-78
2020/12/19 09:39:06;;;;;;;13.43;7.95;;;9.50;99.90;;;;;;4984227;28;20043;-78
2020/12/19 09:41:33;;;;;;;17.40;7.82;;;9.50;99.90;;;;;;4975416;28;20030;-80
2020/12/19 09:43:59;;;;;;;12.23;6.65;;;9.60;99.90;;;;;;4986645;28;20030;-82
2020/12/19 09:46:24;;;;;;;14.23;7.88;;;9.60;99.90;;;;;;4980969;28;20101;-85
2020/12/19 09:48:51;;;;;;;13.98;8.15;;;9.60;99.90;;;;;;4977413;28;20062;-84
2020/12/19 09:51:17;;;;;;;11.88;6.75;;;9.60;99.90;;;;;;4973245;28;20039;-81
2020/12/19 09:53:42;;;;;;;12.63;7.82;;;9.70;99.90;;;;;;4987464;28;20026;-81
2020/12/19 09:56:08;;;;;;;11.75;7.22;;;9.80;99.90;;;;;;4986970;28;20049;-84
2020/12/19 09:58:34;;;;;;;12.40;7.32;;;9.90;99.90;;;;;;4985303;28;20019;-80
2020/12/19 10:00:59;;;;;;;12.23;6.55;;;9.90;99.90;;;;;;4993413;28;20027;-81
2020/12/19 10:03:25;;;;;;;12.77;6.85;;;9.90;99.90;;;;;;4984381;28;20057;-80
2020/12/19 10:05:51;;;;;;;12.43;5.90;;;9.90;99.90;;;;;;4984429;28;20027;-81
2020/12/19 10:08:16;;;;;;;10.35;5.95;;;9.90;99.90;;;;;;4974903;28;20027;-81
2020/12/19 10:10:46;;;;;;;10.60;5.97;;;9.90;99.90;;;;;;4979887;28;20394;-80
2020/12/19 10:13:13;;;;;;;19.00;7.78;;;10.00;99.90;;;;;;4991594;28;20027;-79
2020/12/19 10:15:39;;;;;;;13.30;6.05;;;10.00;99.90;;;;;;4980770;28;20042;-79
2020/12/19 10:18:06;;;;;;;11.20;6.47;;;10.10;99.90;;;;;;4986736;28;20018;-79
2020/12/19 10:20:33;;;;;;;15.95;7.05;;;10.20;99.90;;;;;;4982533;28;20042;-79
2020/12/19 10:22:59;;;;;;;12.77;7.18;;;10.20;99.90;;;;;;4991321;28;20030;-77
2020/12/19 10:25:24;;;;;;;15.13;6.95;;;10.30;99.90;;;;;;4990461;28;20372;-77
2020/12/19 10:27:50;;;;;;;12.35;6.43;;;10.30;99.90;;;;;;4991923;28;20054;-77
2020/12/19 10:30:15;;;;;;;10.60;6.93;;;10.40;99.90;;;;;;4986566;28;20146;-76
2020/12/19 10:32:41;;;;;;;10.30;5.75;;;10.50;99.90;;;;;;4995614;28;20026;-77
2020/12/19 10:35:07;;;;;;;15.73;6.40;;;10.50;99.90;;;;;;4986489;28;20058;-77
2020/12/19 10:37:34;;;;;;;11.60;6.03;;;10.50;99.90;;;;;;4988737;28;20018;-77
2020/12/19 10:39:59;;;;;;;10.57;6.35;;;10.60;99.90;;;;;;4995266;28;20766;-77
2020/12/19 10:42:25;;;;;;;11.95;5.78;;;10.60;99.90;;;;;;5004869;28;20039;-78
2020/12/19 10:44:51;;;;;;;9.43;5.78;;;10.70;99.90;;;;;;4987144;28;20033;-77
2020/12/19 10:47:17;;;;;;;8.30;5.32;;;10.70;99.90;;;;;;4995484;28;20125;-77
2020/12/19 10:49:42;;;;;;;8.35;5.22;;;10.70;99.90;;;;;;4988770;28;20122;-77
2020/12/19 10:52:08;;;;;;;14.25;5.70;;;10.80;99.90;;;;;;4990893;28;20549;-77
2020/12/19 10:54:33;;;;;;;10.32;7.30;;;10.80;99.90;;;;;;4992006;28;20486;-75
2020/12/19 10:57:00;;;;;;;7.10;4.88;;;10.90;99.90;;;;;;4981891;28;20035;-76
2020/12/19 10:59:26;;;;;;;9.88;6.50;;;10.90;99.90;;;;;;4984613;28;20538;-77
2020/12/19 11:01:52;;;;;;;16.23;6.05;;;10.90;99.90;;;;;;4992830;28;20109;-78
2020/12/19 11:04:18;;;;;;;12.13;5.88;;;11.10;99.90;;;;;;5008209;28;20540;-76
2020/12/19 11:06:43;;;;;;;9.73;6.47;;;11.10;99.90;;;;;;5000437;28;20090;-77
2020/12/19 11:09:10;;;;;;;10.43;4.90;;;11.20;99.90;;;;;;5002616;28;20010;-77
2020/12/19 11:11:36;;;;;;;11.48;6.00;;;11.20;99.90;;;;;;5009183;28;20086;-76
2020/12/19 11:14:01;;;;;;;8.38;5.70;;;11.20;99.90;;;;;;5006166;28;20035;-77
2020/12/19 11:16:29;;;;;;;6.95;4.88;;;11.30;99.90;;;;;;5013427;28;20057;-76
2020/12/19 11:18:55;;;;;;;8.50;4.90;;;11.30;99.90;;;;;;5007829;28;20026;-76
2020/12/19 11:21:22;;;;;;;7.30;5.22;;;11.40;99.90;;;;;;5012797;28;20027;-75
2020/12/19 11:23:48;;;;;;;12.48;5.38;;;11.50;99.90;;;;;;4999621;28;20053;-79
2020/12/19 11:26:19;;;;;;;7.22;4.95;;;11.50;99.90;;;;;;4996636;28;20031;-76
2020/12/19 11:28:48;;;;;;;15.95;4.70;;;11.60;99.90;;;;;;4991421;28;20054;-76
2020/12/19 11:31:14;;;;;;;13.70;4.90;;;11.70;99.90;;;;;;4992216;28;20023;-76
2020/12/19 11:33:40;;;;;;;7.68;4.82;;;11.70;99.90;;;;;;4995112;28;20046;-75
2020/12/19 11:36:06;;;;;;;8.35;4.68;;;11.70;99.90;;;;;;4983317;28;20027;-76
2020/12/19 11:38:32;;;;;;;8.57;4.93;;;11.70;99.90;;;;;;4986551;28;20030;-76
2020/12/19 11:40:57;;;;;;;6.30;4.43;;;11.70;99.90;;;;;;4991292;28;20114;-76
2020/12/19 11:43:23;;;;;;;12.27;4.80;;;11.70;99.90;;;;;;4995705;28;20026;-76
2020/12/19 11:45:49;;;;;;;8.95;5.28;;;11.60;99.90;;;;;;4987430;28;20050;-76
2020/12/19 11:48:14;;;;;;;11.23;4.43;;;11.60;99.90;;;;;;4988425;28;20438;-76
2020/12/19 11:50:40;;;;;;;10.60;4.50;;;11.60;99.90;;;;;;4994442;28;20030;-78
2020/12/19 11:53:06;;;;;;;7.50;4.75;;;11.60;99.90;;;;;;4986551;28;20018;-77
2020/12/19 11:55:31;;;;;;;11.23;4.13;;;11.60;99.90;;;;;;4993484;28;20057;-77
2020/12/19 11:57:57;;;;;;;7.70;4.80;;;11.70;99.90;;;;;;4991127;28;20027;-76
2020/12/19 12:00:23;;;;;;;6.15;3.90;;;11.60;99.90;;;;;;4994737;28;20034;-77
2020/12/19 12:02:48;;;;;;;7.78;4.38;;;11.60;99.90;;;;;;4980361;28;20076;-76
2020/12/19 12:05:14;;;;;;;6.68;4.63;;;11.70;99.90;;;;;;4991688;28;20446;-76
2020/12/19 12:07:40;;;;;;;8.48;3.97;;;11.70;99.90;;;;;;4992117;28;20027;-76
2020/12/19 12:10:05;;;;;;;7.40;4.30;;;11.70;99.90;;;;;;4991038;28;20099;-76
2020/12/19 12:12:31;;;;;;;15.18;4.35;;;11.60;99.90;;;;;;4994888;28;20066;-77
2020/12/19 12:14:57;;;;;;;6.65;3.72;;;11.60;99.90;;;;;;4988865;28;20042;-77
2020/12/19 12:17:22;;;;;;;6.22;2.95;;;11.70;99.90;;;;;;4986175;28;20035;-77
2020/12/19 12:19:48;;;;;;;11.70;3.67;;;11.70;99.90;;;;;;4979926;28;20514;-76
2020/12/19 12:22:16;;;;;;;10.00;3.13;;;11.70;99.90;;;;;;4988405;28;20027;-77
2020/12/19 12:24:42;;;;;;;4.88;3.13;;;11.70;99.90;;;;;;4992619;28;20513;-77
2020/12/19 12:27:08;;;;;;;4.70;2.45;;;11.90;99.90;;;;;;4986111;28;20034;-77
2020/12/19 12:29:33;;;;;;;5.50;3.08;;;11.90;99.90;;;;;;4988821;28;20030;-76
2020/12/19 12:31:59;;;;;;;5.57;3.30;;;11.80;99.90;;;;;;4987108;28;20073;-76
2020/12/19 12:34:24;;;;;;;16.33;7.50;;;11.80;99.90;;;;;;4992574;28;20117;-76
2020/12/19 12:36:50;;;;;;;4.20;3.22;;;11.80;99.90;;;;;;4992389;28;20030;-76
2020/12/19 12:39:16;;;;;;;5.57;2.65;;;11.80;99.90;;;;;;4993013;28;20026;-77
2020/12/19 12:41:45;;;;;;;9.73;3.65;;;11.90;99.90;;;;;;4994046;28;20446;-76
2020/12/19 12:44:11;;;;;;;5.47;2.83;;;12.00;99.90;;;;;;4991281;28;20030;-76
2020/12/19 12:46:37;;;;;;;8.80;4.60;;;12.00;99.90;;;;;;4991601;28;20080;-77